Parramatta, Australia
Current Conditions -  °F | °C
As of 4:20 AM on Friday 24 Oct 2014 (Local Time) from YSSY Reporting Station
Broken Clouds Broken Clouds  
Wind Chill: 66°   Ceiling: 12000
Heat Index: 66°   Visibility: 6mi
Dew Point: 63°   Wind: 6mph
Humidity: 88%   Direction: 310°NW
Pressure: 30.09"   Gusts: NA
Location:  33.82°S, 151°E
Report Text: YSSY 231720Z 31005KT 9999 FEW010 BKN120 19/17 Q1019 FM1800 36005KT 9999 SCT010
Loading
Personal Weather Stations






























Interactive Weather Map
Tropical Storm Tracking
New forecast layout! Learn more

10-Day Weather Forecast

Advertisements
Track Severe Weather on mobile